Share

El Dorado Springs, MO (64744)

Freemont St (KMOSTOCK2) Elev 948 ft | 37.71 °N, 93.78 °W | Change Station

Current weather conditions updated 3 minutes ago

Clear
Clear
52.5 °F
Feels Like 52.5 °F
N
3.6
Wind Variable Wind from ESE
Gusts 3.6 mph
Sunrise 6:35 AM
Sunset 7:55 PM
Moon Waning Gibbous

Today is forecast to be Much Warmer than yesterday.

Pressure 30.17 in
Visibility 10.0 miles
Clouds Clear
Dew Point 20 °F
Humidity 28%
Rainfall 0.00 in
Snow Depth Not available.
UV 0 out of 16
Pollen 10.00 out of 12
Air Quality Not available.
Flu Activity Sporadic
METAR KGLY 190815Z AUTO 12005KT 10SM CLR 12/06 A3017 RMK AO2

More Conditions Fewer Conditions

Pressure 30.17 in
Visibility 10.0 miles
Clouds Clear
Dew Point 20 °F
Humidity 28%
Rainfall 0.00 in
Snow Depth Not available.
UV 0 out of 16
Pollen 10.00 out of 12
Air Quality Not available.
Flu Activity Sporadic
METAR KGLY 190815Z AUTO 12005KT 10SM CLR 12/06 A3017 RMK AO2

More Conditions Fewer Conditions

10-Day Weather Forecast

Almanac

Astronomy

Apr. 19, 2014 Rise Set
Actual Time 6:35 AM CDT 7:55 PM CDT
Civil Twilight 6:07 AM CDT 8:23 PM CDT
Nautical Twilight 5:35 AM CDT 8:55 PM CDT
Astronomical Twilight 5:00 AM CDT 9:30 PM CDT
Moon No Moon Rise 9:56 AM CDT
Length of Visible Light 14h 15m
Length of Day
13h 20m
Tomorrow will be 2m 17s longer.
Waning Gibbous, 81% of the Moon is Illuminated
Today
Waning Gibbous
Apr 22
Last Quarter
Apr 29
New
May 6
First Quarter
May 14
Full

Today's Extremes

State Highs State Lows

Community

  • Sunset Silhouettes
    Sunset Silhouettes
  • FL sunset Perico Isle
    FL sunset Perico Isle
  • Cloudy spring view
    Cloudy spring view
  • Old barn
    Old barn
  • What's for Lunch?
    What's for Lunch?

WunderPhotos

Upload Photos

1,702,670 photos uploaded!

WunderBlogs® & News

Nearby

Snow Depth

Station Depth Elevation
No new snow has been reported.

Coastal Water Temperatures

Place Temperature
No Stations Reporting

Earthquake Activity

City Distance Mag. Time & Date
No recent earthquake activity has been reported nearby.
Minimum magnitude displayed is 2.5.

Nearby Weather Stations

Station Location Temp. Dew Point Humidity Wind Precip. Elev Updated Type
Freemont St, Stockton, MO 52.5 °F 20 °F 28% ESE  at  3.6 mph 0.00 in / hr 948 ft 3:15 AM CDT Rapid Fire
Gordon's Orchard, Collins, MO 52.9 °F 42 °F 67% SSE  at  4.7 mph - / hr 925 ft 3:18 AM CDT Normal
Irwin, MO, Lamar, MO 50.5 °F 44 °F 77% ESE  at  6.0 mph 0.00 in / hr 955 ft 3:12 AM CDT Normal

Show More Stations Show Fewer Stations

What do you think?

We're not finished. Please let us know what you like, what you don't like, and what you are still missing.